Saturday, January 20, 2018, 8:20 AM EST
Back to Local

KBTP, Butler, Butler County Airport/k W Scholter Field

Location: Renfrew, PA, United States Lat: 40.783
Local Time: 8:20 AM EST (13:20 GMT) Lon: -79.95
Time Zone: US/Eastern Elev: 1246 ft

Show me the last for .
Show Decoded

2018-01-20 07:56 METAR KBTP 201256Z AUTO 23011KT 10SM CLR 01/M06 A2999 RMK AO2 SLP172 T00061056
                 FZRANO =
2018-01-20 06:56 METAR KBTP 201156Z AUTO 23011KT 10SM CLR 01/M06 A2998 RMK AO2 SLP171 T00111056
                 10017 20006 53010 FZRANO =
2018-01-20 05:56 METAR KBTP 201056Z AUTO 23011KT 10SM CLR 01/M06 A2997 RMK AO2 SLP165 T00111056
                 FZRANO =
2018-01-20 04:56 METAR KBTP 200956Z AUTO 23012KT 10SM CLR 01/M06 A2996 RMK AO2 SLP163 T00111061
                 FZRANO =
2018-01-20 03:56 METAR KBTP 200856Z AUTO 23011KT 10SM CLR 01/M06 A2995 RMK AO2 SLP160 T00111061
                 53007 FZRANO =
2018-01-20 01:56 METAR KBTP 200656Z AUTO 23013G17KT 10SM CLR 02/M07 A2994 RMK AO2 SLP154
                 T00171072 FZRANO =
2018-01-20 00:56 METAR KBTP 200556Z AUTO 21008KT 10SM CLR 01/M07 A2993 RMK AO2 SLP154 T00061072
                 10011 20000 58013 FZRANO =
2018-01-19 23:56 METAR KBTP 200456Z AUTO 21010KT 10SM CLR 00/M08 A2995 RMK AO2 SLP159 T00001083
                 400281072 FZRANO =
2018-01-19 22:56 METAR KBTP 200356Z AUTO 21010KT 10SM CLR 00/M08 A2997 RMK AO2 SLP167 T00001078
                 FZRANO =
2018-01-19 21:56 METAR KBTP 200256Z AUTO 21009KT 10SM CLR 00/M08 A2997 RMK AO2 SLP169 T00001078
                 57007 FZRANO =
2018-01-19 20:56 METAR KBTP 200156Z AUTO 21008KT 10SM CLR 00/M08 A2997 RMK AO2 SLP171 T00001078
                 FZRANO =
2018-01-19 19:56 METAR KBTP 200056Z AUTO 20007KT 10SM CLR 01/M08 A2999 RMK AO2 SLP178 T00061078
                 FZRANO =
2018-01-19 18:56 METAR KBTP 192356Z AUTO 20006KT 10SM CLR 01/M08 A2999 RMK AO2 SLP178 T00061078
                 10028 20006 50002 FZRANO =
2018-01-19 17:56 METAR KBTP 192256Z AUTO 20007KT 10SM CLR 01/M08 A3000 RMK AO2 SLP180 T00111083
                 FZRANO TSNO =
2018-01-19 16:56 METAR KBTP 192156Z AUTO 21007KT 10SM CLR 02/M08 A2999 RMK AO2 SLP177 T00221083
                 FZRANO =
2018-01-19 15:56 METAR KBTP 192056Z AUTO 21011G15KT 10SM CLR 02/M08 A2999 RMK AO2 SLP176
                 T00221083 56015 FZRANO =
2018-01-19 14:56 METAR KBTP 191956Z AUTO 20010G18KT 10SM CLR 02/M08 A2999 RMK AO2 SLP177
                 T00221083 FZRANO =
2018-01-19 13:56 METAR KBTP 191856Z AUTO 19010KT 10SM CLR 01/M09 A3001 RMK AO2 SLP182 T00111089
                 FZRANO =
2018-01-19 12:56 METAR KBTP 191756Z AUTO 22010G17KT 10SM CLR 00/M09 A3003 RMK AO2 SLP192 60000
                 T00001089 10017 21072 58018 FZRANO =
2018-01-19 11:56 METAR KBTP 191656Z AUTO 23011G17KT 10SM CLR 01/M09 A3006 RMK AO2 SNB11E24 SLP201
                 P0000 T00061094 FZRANO =
2018-01-19 10:56 METAR KBTP 191556Z AUTO 22011KT 10SM CLR M01/M09 A3009 RMK AO2 SLP212 T10111094
                 FZRANO =
2018-01-19 09:56 METAR KBTP 191456Z AUTO 23013KT 10SM CLR M03/M11 A3009 RMK AO2 SLP213 T10281106
                 56005 FZRANO =
2018-01-19 08:56 METAR KBTP 191356Z AUTO 22009KT 10SM CLR M05/M11 A3009 RMK AO2 SLP214 T10501111
                 FZRANO =

Support USWX by starting your Amazon purchase here.